Marola — IBFL — position and weather

sailwx.info

Track history (hours):
 
Tides and Currents Weather Stations Pressure Air Temp Water Temp Dewpoint Dewpoint Depression Visibility Wind Speed Wind Dir Waves Ship Positions

Marola

Last reported at 2016-Jun-20 01:12 UTC. Time now 2016-Jun-27 06:01 UTC.
Position N 10°54' W 061°17'.

Length 180 m; draft 9.1 m.

Type: Ship (hazmat cat B). MMSI: 247094900.

Date/timePositionNaut miles runAvg speedWind from/ knotsBaromVisibWave heightAir tempDewpointWater temp
2016-Jun-20 01:12N 10°54' W 061°17'1014.8
2016-Jun-20 00:33N 10°52' W 061°27'1514.8
2016-Jun-19 23:33N 10°50' W 061°42'1313.1
2016-Jun-19 22:33N 10°39' W 061°49'1414.2
2016-Jun-19 21:33N 10°26' W 061°43'10 9.7
2016-Jun-19 20:34N 10°23' W 061°34'1 1.5
2016-Jun-19 19:33N 10°23' W 061°33'3 2.8
2016-Jun-19 18:32N 10°23' W 061°30'0 0.0
2016-Jun-19 17:32N 10°23' W 061°30'0 0.0
2016-Jun-19 16:32N 10°23' W 061°30'0 0.0
2016-Jun-19 15:32N 10°23' W 061°30'0 0.0
2016-Jun-19 14:32N 10°23' W 061°30'0 0.0
2016-Jun-19 13:32N 10°23' W 061°30'0 0.0
2016-Jun-19 12:32N 10°23' W 061°30'0 0.0
2016-Jun-19 11:32N 10°23' W 061°30'0 0.0
2016-Jun-19 10:32N 10°23' W 061°30'0 0.0
2016-Jun-19 09:32N 10°23' W 061°30'0 0.0
2016-Jun-19 08:32N 10°23' W 061°30'0 0.0
2016-Jun-19 07:32N 10°23' W 061°30'0 0.0
2016-Jun-19 06:32N 10°23' W 061°30'0 0.0
2016-Jun-19 05:32N 10°23' W 061°30'0 0.0
2016-Jun-19 04:32N 10°23' W 061°30'0 0.0
2016-Jun-19 03:32N 10°23' W 061°30'0 0.0
2016-Jun-19 02:32N 10°23' W 061°30'0 0.0
2016-Jun-19 01:32N 10°23' W 061°30'0 0.0
2016-Jun-19 00:32N 10°23' W 061°30'0 0.0
2016-Jun-18 23:32N 10°23' W 061°30'0 0.0
2016-Jun-18 22:32N 10°23' W 061°30'0 0.0
2016-Jun-18 21:32N 10°23' W 061°30'0 0.0
2016-Jun-18 20:32N 10°23' W 061°30'0 0.0
2016-Jun-18 19:32N 10°23' W 061°30'0 0.0
2016-Jun-18 18:32N 10°23' W 061°30'0 0.0
2016-Jun-18 17:32N 10°23' W 061°30'0 0.0
2016-Jun-18 16:32N 10°23' W 061°30'0 0.0
2016-Jun-18 15:32N 10°23' W 061°30'0 0.0
2016-Jun-18 14:26N 10°23' W 061°30'0 0.0
2016-Jun-18 13:32N 10°23' W 061°30'0 0.0
2016-Jun-18 12:32N 10°23' W 061°30'0 0.0
2016-Jun-18 11:33N 10°23' W 061°30'3 3.3
2016-Jun-18 10:33N 10°22' W 061°33'1 1.0
2016-Jun-18 09:33N 10°23' W 061°34'7 7.1
2016-Jun-18 08:34N 10°25' W 061°41'1313.2
2016-Jun-18 07:34N 10°35' W 061°49'1414.4
2016-Jun-18 06:34N 10°49' W 061°50'1514.5
2016-Jun-18 05:33N 10°60' W 062°01'  
2016-Jun-13 08:33N 27°37' W 082°42'1313.2
2016-Jun-13 07:33N 27°46' W 082°31'10 9.5
2016-Jun-13 06:32N 27°54' W 082°26'1 0.6
2016-Jun-13 05:32N 27°54' W 082°25'0 0.0
2016-Jun-13 04:32N 27°54' W 082°25'0 0.0
2016-Jun-13 03:32N 27°54' W 082°25'0 0.0
2016-Jun-13 02:32N 27°54' W 082°25'0 0.0
2016-Jun-13 01:32N 27°54' W 082°25'0 0.0
2016-Jun-13 00:32N 27°54' W 082°25'0 0.0
2016-Jun-12 23:32N 27°54' W 082°25'0 0.0
2016-Jun-12 22:32N 27°54' W 082°25'0 0.0
2016-Jun-12 21:32N 27°54' W 082°25'0 0.0
2016-Jun-12 20:32N 27°54' W 082°25'0 0.0
2016-Jun-12 19:32N 27°54' W 082°25'0 0.0
2016-Jun-12 18:32N 27°54' W 082°25'0 0.0
2016-Jun-12 17:32N 27°54' W 082°25'0 0.0
2016-Jun-12 16:32N 27°54' W 082°25'0 0.0
2016-Jun-12 15:32N 27°54' W 082°25'0 0.0
2016-Jun-12 14:32N 27°54' W 082°25'0 0.0
2016-Jun-12 13:32N 27°54' W 082°25'0 0.0
2016-Jun-12 12:32N 27°54' W 082°25'0 0.0
2016-Jun-12 11:26N 27°54' W 082°25'0 0.0
2016-Jun-12 10:29N 27°54' W 082°25'0 0.0
2016-Jun-12 09:32N 27°54' W 082°25'0 0.0
2016-Jun-12 08:32N 27°54' W 082°25'0 0.0
2016-Jun-12 07:32N 27°54' W 082°25'0 0.0
2016-Jun-12 06:32N 27°54' W 082°25'0 0.2
2016-Jun-12 04:32N 27°54' W 082°25'0 0.0
2016-Jun-12 03:32N 27°54' W 082°25'0 0.0
2016-Jun-12 02:32N 27°54' W 082°25'0 0.0
2016-Jun-12 01:32N 27°54' W 082°25'0 0.0
2016-Jun-12 00:32N 27°54' W 082°25'0 0.0
2016-Jun-11 23:32N 27°54' W 082°25'0 0.0
2016-Jun-11 22:32N 27°54' W 082°25'0 0.0
2016-Jun-11 21:32N 27°54' W 082°25'0 0.0
2016-Jun-11 20:29N 27°54' W 082°25'0 0.0
2016-Jun-11 19:32N 27°54' W 082°25'0 0.0
2016-Jun-11 18:32N 27°54' W 082°25'0 0.0
2016-Jun-11 17:32N 27°54' W 082°25'0 0.0
2016-Jun-11 16:32N 27°54' W 082°25'0 0.0
2016-Jun-11 15:32N 27°54' W 082°25'0 0.0
2016-Jun-11 14:32N 27°54' W 082°25'0 0.0
2016-Jun-11 13:32N 27°54' W 082°25'0 0.0
2016-Jun-11 12:32N 27°54' W 082°25'0 0.0
2016-Jun-11 11:32N 27°54' W 082°25'0 0.0
2016-Jun-11 10:32N 27°54' W 082°25'0 0.0
2016-Jun-11 09:32N 27°54' W 082°25'0 0.0
2016-Jun-11 08:29N 27°54' W 082°25'0 0.0
2016-Jun-11 07:32N 27°54' W 082°25'2 1.8
2016-Jun-11 06:34N 27°53' W 082°26'9 9.0
2016-Jun-11 05:33N 27°45' W 082°32'1111.4
2016-Jun-11 04:33N 27°37' W 082°41'  
Track history (hours):
 
Tides and Currents Weather Stations Pressure Air Temp Water Temp Dewpoint Dewpoint Depression Visibility Wind Speed Wind Dir Waves Ship Positions

Marola

Last reported at 2016-Jun-20 01:12 UTC. Time now 2016-Jun-27 06:01 UTC.
Position N 10°54' W 061°17'.

Length 180 m; draft 9.1 m.

Type: Ship (hazmat cat B). MMSI: 247094900.

Date/timePositionNaut miles runAvg speedWind from/ knotsBaromVisibWave heightAir tempDewpointWater temp
2016-Jun-20 01:12N 10°54' W 061°17'1014.8
2016-Jun-20 00:33N 10°52' W 061°27'1514.8
2016-Jun-19 23:33N 10°50' W 061°42'1313.1
2016-Jun-19 22:33N 10°39' W 061°49'1414.2
2016-Jun-19 21:33N 10°26' W 061°43'10 9.7
2016-Jun-19 20:34N 10°23' W 061°34'1 1.5
2016-Jun-19 19:33N 10°23' W 061°33'3 2.8
2016-Jun-19 18:32N 10°23' W 061°30'0 0.0
2016-Jun-19 17:32N 10°23' W 061°30'0 0.0
2016-Jun-19 16:32N 10°23' W 061°30'0 0.0
2016-Jun-19 15:32N 10°23' W 061°30'0 0.0
2016-Jun-19 14:32N 10°23' W 061°30'0 0.0
2016-Jun-19 13:32N 10°23' W 061°30'0 0.0
2016-Jun-19 12:32N 10°23' W 061°30'0 0.0
2016-Jun-19 11:32N 10°23' W 061°30'0 0.0
2016-Jun-19 10:32N 10°23' W 061°30'0 0.0
2016-Jun-19 09:32N 10°23' W 061°30'0 0.0
2016-Jun-19 08:32N 10°23' W 061°30'0 0.0
2016-Jun-19 07:32N 10°23' W 061°30'0 0.0
2016-Jun-19 06:32N 10°23' W 061°30'0 0.0
2016-Jun-19 05:32N 10°23' W 061°30'0 0.0
2016-Jun-19 04:32N 10°23' W 061°30'0 0.0
2016-Jun-19 03:32N 10°23' W 061°30'0 0.0
2016-Jun-19 02:32N 10°23' W 061°30'0 0.0
2016-Jun-19 01:32N 10°23' W 061°30'0 0.0
2016-Jun-19 00:32N 10°23' W 061°30'0 0.0
2016-Jun-18 23:32N 10°23' W 061°30'0 0.0
2016-Jun-18 22:32N 10°23' W 061°30'0 0.0
2016-Jun-18 21:32N 10°23' W 061°30'0 0.0
2016-Jun-18 20:32N 10°23' W 061°30'0 0.0
2016-Jun-18 19:32N 10°23' W 061°30'0 0.0
2016-Jun-18 18:32N 10°23' W 061°30'0 0.0
2016-Jun-18 17:32N 10°23' W 061°30'0 0.0
2016-Jun-18 16:32N 10°23' W 061°30'0 0.0
2016-Jun-18 15:32N 10°23' W 061°30'0 0.0
2016-Jun-18 14:26N 10°23' W 061°30'0 0.0
2016-Jun-18 13:32N 10°23' W 061°30'0 0.0
2016-Jun-18 12:32N 10°23' W 061°30'0 0.0
2016-Jun-18 11:33N 10°23' W 061°30'3 3.3
2016-Jun-18 10:33N 10°22' W 061°33'1 1.0
2016-Jun-18 09:33N 10°23' W 061°34'7 7.1
2016-Jun-18 08:34N 10°25' W 061°41'1313.2
2016-Jun-18 07:34N 10°35' W 061°49'1414.4
2016-Jun-18 06:34N 10°49' W 061°50'1514.5
2016-Jun-18 05:33N 10°60' W 062°01'  
2016-Jun-13 08:33N 27°37' W 082°42'1313.2
2016-Jun-13 07:33N 27°46' W 082°31'10 9.5
2016-Jun-13 06:32N 27°54' W 082°26'1 0.6
2016-Jun-13 05:32N 27°54' W 082°25'0 0.0
2016-Jun-13 04:32N 27°54' W 082°25'0 0.0
2016-Jun-13 03:32N 27°54' W 082°25'0 0.0
2016-Jun-13 02:32N 27°54' W 082°25'0 0.0
2016-Jun-13 01:32N 27°54' W 082°25'0 0.0
2016-Jun-13 00:32N 27°54' W 082°25'0 0.0
2016-Jun-12 23:32N 27°54' W 082°25'0 0.0
2016-Jun-12 22:32N 27°54' W 082°25'0 0.0
2016-Jun-12 21:32N 27°54' W 082°25'0 0.0
2016-Jun-12 20:32N 27°54' W 082°25'0 0.0
2016-Jun-12 19:32N 27°54' W 082°25'0 0.0
2016-Jun-12 18:32N 27°54' W 082°25'0 0.0
2016-Jun-12 17:32N 27°54' W 082°25'0 0.0
2016-Jun-12 16:32N 27°54' W 082°25'0 0.0
2016-Jun-12 15:32N 27°54' W 082°25'0 0.0
2016-Jun-12 14:32N 27°54' W 082°25'0 0.0
2016-Jun-12 13:32N 27°54' W 082°25'0 0.0
2016-Jun-12 12:32N 27°54' W 082°25'0 0.0
2016-Jun-12 11:26N 27°54' W 082°25'0 0.0
2016-Jun-12 10:29N 27°54' W 082°25'0 0.0
2016-Jun-12 09:32N 27°54' W 082°25'0 0.0
2016-Jun-12 08:32N 27°54' W 082°25'0 0.0
2016-Jun-12 07:32N 27°54' W 082°25'0 0.0
2016-Jun-12 06:32N 27°54' W 082°25'0 0.2
2016-Jun-12 04:32N 27°54' W 082°25'0 0.0
2016-Jun-12 03:32N 27°54' W 082°25'0 0.0
2016-Jun-12 02:32N 27°54' W 082°25'0 0.0
2016-Jun-12 01:32N 27°54' W 082°25'0 0.0
2016-Jun-12 00:32N 27°54' W 082°25'0 0.0
2016-Jun-11 23:32N 27°54' W 082°25'0 0.0
2016-Jun-11 22:32N 27°54' W 082°25'0 0.0
2016-Jun-11 21:32N 27°54' W 082°25'0 0.0
2016-Jun-11 20:29N 27°54' W 082°25'0 0.0
2016-Jun-11 19:32N 27°54' W 082°25'0 0.0
2016-Jun-11 18:32N 27°54' W 082°25'0 0.0
2016-Jun-11 17:32N 27°54' W 082°25'0 0.0
2016-Jun-11 16:32N 27°54' W 082°25'0 0.0
2016-Jun-11 15:32N 27°54' W 082°25'0 0.0
2016-Jun-11 14:32N 27°54' W 082°25'0 0.0
2016-Jun-11 13:32N 27°54' W 082°25'0 0.0
2016-Jun-11 12:32N 27°54' W 082°25'0 0.0
2016-Jun-11 11:32N 27°54' W 082°25'0 0.0
2016-Jun-11 10:32N 27°54' W 082°25'0 0.0
2016-Jun-11 09:32N 27°54' W 082°25'0 0.0
2016-Jun-11 08:29N 27°54' W 082°25'0 0.0
2016-Jun-11 07:32N 27°54' W 082°25'2 1.8
2016-Jun-11 06:34N 27°53' W 082°26'9 9.0
2016-Jun-11 05:33N 27°45' W 082°32'1111.4
2016-Jun-11 04:33N 27°37' W 082°41'  

Dump ship's entire track history